SDCB weather

Fazenda São Marcos Airport
Itapeva, São Paulo, Brazil

Public forecast

Using degrees Celsius for public forecast. Weather courtesy of forecast.io.

Closest aviation weather report (METAR) to Fazenda São Marcos Airport

Closest report is Bacacheri Airport, 91.8 nm (170.1 km) SSW. Retrieved 2020/02/22 21:00 UTC (22 minutes ago):

SBBI 222100Z 05007KT 9999 BKN010 17/14 Q1020

Closest aviation forecast (TAF) to Fazenda São Marcos Airport

Closest forecast is Bacacheri Airport, 91.8 nm (170.1 km) SSW. Retrieved 2020/02/22 18:33 UTC (3 hours ago):

TAF SBBI 221600Z 2218/2306 10007KT 9999 BKN012 TX18/2218Z TN13/2306Z BECMG 2220/2222 BKN008 BECMG 2302/2304 SCT006 RMK PDW